Terminal Aerodrome Forecast
Issued by NWS Nashville, TN

Home | Current Version | Previous Version | Text Only | Print | Product List | Glossary On
Versions: 1 2 3 4 5 6 7 8 9 10 11 12 13 14 15 16 17 18 19 20 21 22 23 24 25 26 27 28 29
000
FTUS44 KOHX 040700 AAA
TAFBNA
TAF AMD
KBNA 040723Z 0407/0506 20008KT P6SM FEW017 BKN022 OVC050
      TEMPO 0407/0411 5SM -RA OVC017
     FM041100 31007KT 2SM -RA BR OVC007
     FM041600 35007KT 2SM -RA BR OVC003
     FM042200 36012G20KT 2SM -RA BR OVC003
     FM050000 35014G20KT 2SM -RAPL BR OVC003
     FM050400 36015G22KT 2SM PL BR OVC003=

USA.gov is the U.S. government's official web portal to all federal, state and local government web resources and services.